sensor_id;sensor_type;location;lat;lon;timestamp;P1;durP1;ratioP1;P2;durP2;ratioP2
13797;SDS011;6970;51.340;3.240;2024-02-15T00:00:42;12.80;;;3.58;;
13797;SDS011;6970;51.340;3.240;2024-02-15T00:03:09;13.50;;;3.55;;
13797;SDS011;6970;51.340;3.240;2024-02-15T00:05:40;11.00;;;3.22;;
13797;SDS011;6970;51.340;3.240;2024-02-15T00:08:09;8.93;;;3.60;;
13797;SDS011;6970;51.340;3.240;2024-02-15T00:10:37;12.75;;;3.92;;
13797;SDS011;6970;51.340;3.240;2024-02-15T00:13:05;10.30;;;3.88;;
13797;SDS011;6970;51.340;3.240;2024-02-15T00:15:35;9.15;;;3.20;;
13797;SDS011;6970;51.340;3.240;2024-02-15T00:18:05;10.40;;;3.40;;
13797;SDS011;6970;51.340;3.240;2024-02-15T00:25:42;8.73;;;3.58;;
13797;SDS011;6970;51.340;3.240;2024-02-15T00:28:12;10.98;;;3.45;;
13797;SDS011;6970;51.340;3.240;2024-02-15T00:30:42;11.32;;;3.28;;
13797;SDS011;6970;51.340;3.240;2024-02-15T00:33:12;10.48;;;3.35;;
13797;SDS011;6970;51.340;3.240;2024-02-15T00:38:10;13.95;;;3.50;;
13797;SDS011;6970;51.340;3.240;2024-02-15T00:40:38;9.15;;;2.83;;
13797;SDS011;6970;51.340;3.240;2024-02-15T00:43:07;11.27;;;3.15;;
13797;SDS011;6970;51.340;3.240;2024-02-15T00:45:40;11.07;;;3.25;;
13797;SDS011;6970;51.340;3.240;2024-02-15T00:48:10;9.95;;;3.15;;
13797;SDS011;6970;51.340;3.240;2024-02-15T00:50:40;9.80;;;2.90;;
13797;SDS011;6970;51.340;3.240;2024-02-15T00:53:07;11.02;;;3.30;;
13797;SDS011;6970;51.340;3.240;2024-02-15T00:55:34;10.07;;;3.08;;
13797;SDS011;6970;51.340;3.240;2024-02-15T00:58:02;12.27;;;2.83;;
13797;SDS011;6970;51.340;3.240;2024-02-15T01:05:32;10.52;;;2.83;;
13797;SDS011;6970;51.340;3.240;2024-02-15T01:10:34;8.50;;;3.13;;
13797;SDS011;6970;51.340;3.240;2024-02-15T01:13:06;10.35;;;3.58;;
13797;SDS011;6970;51.340;3.240;2024-02-15T01:18:05;10.25;;;3.67;;
13797;SDS011;6970;51.340;3.240;2024-02-15T01:20:33;8.50;;;3.17;;
13797;SDS011;6970;51.340;3.240;2024-02-15T01:25:37;12.18;;;2.80;;
13797;SDS011;6970;51.340;3.240;2024-02-15T01:30:37;9.98;;;2.85;;
13797;SDS011;6970;51.340;3.240;2024-02-15T01:33:05;8.55;;;2.88;;
13797;SDS011;6970;51.340;3.240;2024-02-15T01:35:34;13.35;;;3.40;;
13797;SDS011;6970;51.340;3.240;2024-02-15T01:38:04;8.10;;;2.72;;
13797;SDS011;6970;51.340;3.240;2024-02-15T01:43:05;9.95;;;2.75;;
13797;SDS011;6970;51.340;3.240;2024-02-15T01:45:33;10.05;;;3.42;;
13797;SDS011;6970;51.340;3.240;2024-02-15T01:48:01;12.15;;;2.50;;
13797;SDS011;6970;51.340;3.240;2024-02-15T01:50:31;9.65;;;2.58;;
13797;SDS011;6970;51.340;3.240;2024-02-15T01:53:01;9.40;;;3.20;;
13797;SDS011;6970;51.340;3.240;2024-02-15T01:55:34;10.40;;;3.22;;
13797;SDS011;6970;51.340;3.240;2024-02-15T01:58:03;9.85;;;3.22;;
13797;SDS011;6970;51.340;3.240;2024-02-15T02:00:34;9.82;;;2.70;;
13797;SDS011;6970;51.340;3.240;2024-02-15T02:03:03;13.02;;;3.15;;
13797;SDS011;6970;51.340;3.240;2024-02-15T02:05:32;10.80;;;2.95;;
13797;SDS011;6970;51.340;3.240;2024-02-15T02:10:37;12.40;;;3.55;;
13797;SDS011;6970;51.340;3.240;2024-02-15T02:15:38;12.23;;;2.92;;
13797;SDS011;6970;51.340;3.240;2024-02-15T02:23:17;9.50;;;3.70;;
13797;SDS011;6970;51.340;3.240;2024-02-15T02:25:52;10.02;;;3.17;;
13797;SDS011;6970;51.340;3.240;2024-02-15T02:28:23;11.52;;;2.75;;
13797;SDS011;6970;51.340;3.240;2024-02-15T02:38:28;11.02;;;3.00;;
13797;SDS011;6970;51.340;3.240;2024-02-15T02:41:11;10.25;;;3.20;;
13797;SDS011;6970;51.340;3.240;2024-02-15T02:43:42;13.27;;;4.38;;
13797;SDS011;6970;51.340;3.240;2024-02-15T02:46:18;8.95;;;3.35;;
13797;SDS011;6970;51.340;3.240;2024-02-15T02:51:18;11.43;;;3.60;;
13797;SDS011;6970;51.340;3.240;2024-02-15T02:53:45;7.55;;;3.22;;
13797;SDS011;6970;51.340;3.240;2024-02-15T02:56:16;9.80;;;3.47;;
13797;SDS011;6970;51.340;3.240;2024-02-15T02:58:48;7.68;;;2.65;;
13797;SDS011;6970;51.340;3.240;2024-02-15T03:01:15;7.90;;;3.03;;
13797;SDS011;6970;51.340;3.240;2024-02-15T03:03:46;8.43;;;3.42;;
13797;SDS011;6970;51.340;3.240;2024-02-15T03:06:15;9.50;;;3.40;;
13797;SDS011;6970;51.340;3.240;2024-02-15T03:08:44;9.45;;;3.30;;
13797;SDS011;6970;51.340;3.240;2024-02-15T03:11:12;10.27;;;3.13;;
13797;SDS011;6970;51.340;3.240;2024-02-15T03:13:40;11.05;;;3.80;;
13797;SDS011;6970;51.340;3.240;2024-02-15T03:16:10;9.82;;;3.30;;
13797;SDS011;6970;51.340;3.240;2024-02-15T03:18:38;9.50;;;3.47;;
13797;SDS011;6970;51.340;3.240;2024-02-15T03:21:08;9.18;;;3.63;;
13797;SDS011;6970;51.340;3.240;2024-02-15T03:23:37;13.32;;;3.17;;
13797;SDS011;6970;51.340;3.240;2024-02-15T03:26:07;10.95;;;3.28;;
13797;SDS011;6970;51.340;3.240;2024-02-15T03:31:08;8.40;;;3.17;;
13797;SDS011;6970;51.340;3.240;2024-02-15T03:36:09;9.13;;;2.80;;
13797;SDS011;6970;51.340;3.240;2024-02-15T03:38:41;10.52;;;3.42;;
13797;SDS011;6970;51.340;3.240;2024-02-15T03:41:13;9.25;;;2.95;;
13797;SDS011;6970;51.340;3.240;2024-02-15T03:43:41;9.65;;;2.88;;
13797;SDS011;6970;51.340;3.240;2024-02-15T03:46:09;9.48;;;3.10;;
13797;SDS011;6970;51.340;3.240;2024-02-15T03:51:18;6.93;;;2.63;;
13797;SDS011;6970;51.340;3.240;2024-02-15T03:53:50;7.70;;;2.70;;
13797;SDS011;6970;51.340;3.240;2024-02-15T03:56:19;10.32;;;3.25;;
13797;SDS011;6970;51.340;3.240;2024-02-15T04:01:20;7.60;;;2.65;;
13797;SDS011;6970;51.340;3.240;2024-02-15T04:06:21;9.57;;;3.33;;
13797;SDS011;6970;51.340;3.240;2024-02-15T04:08:54;9.23;;;2.83;;
13797;SDS011;6970;51.340;3.240;2024-02-15T04:11:21;10.25;;;3.10;;
13797;SDS011;6970;51.340;3.240;2024-02-15T04:13:48;12.38;;;3.35;;
13797;SDS011;6970;51.340;3.240;2024-02-15T04:16:15;9.60;;;2.95;;
13797;SDS011;6970;51.340;3.240;2024-02-15T04:18:46;7.97;;;3.05;;
13797;SDS011;6970;51.340;3.240;2024-02-15T04:23:46;8.88;;;2.80;;
13797;SDS011;6970;51.340;3.240;2024-02-15T04:28:43;9.25;;;2.65;;
13797;SDS011;6970;51.340;3.240;2024-02-15T04:31:11;8.38;;;3.33;;
13797;SDS011;6970;51.340;3.240;2024-02-15T04:33:40;8.40;;;3.22;;
13797;SDS011;6970;51.340;3.240;2024-02-15T04:36:08;8.98;;;2.97;;
13797;SDS011;6970;51.340;3.240;2024-02-15T04:38:35;7.72;;;2.90;;
13797;SDS011;6970;51.340;3.240;2024-02-15T04:41:09;9.82;;;3.08;;
13797;SDS011;6970;51.340;3.240;2024-02-15T04:43:37;10.52;;;3.72;;
13797;SDS011;6970;51.340;3.240;2024-02-15T04:46:07;8.85;;;2.83;;
13797;SDS011;6970;51.340;3.240;2024-02-15T04:48:36;9.85;;;3.28;;
13797;SDS011;6970;51.340;3.240;2024-02-15T04:51:04;10.70;;;3.15;;
13797;SDS011;6970;51.340;3.240;2024-02-15T04:56:05;12.55;;;3.85;;
13797;SDS011;6970;51.340;3.240;2024-02-15T05:03:44;13.43;;;3.65;;
13797;SDS011;6970;51.340;3.240;2024-02-15T05:06:12;9.10;;;2.90;;
13797;SDS011;6970;51.340;3.240;2024-02-15T05:08:41;8.70;;;3.15;;
13797;SDS011;6970;51.340;3.240;2024-02-15T05:13:48;10.70;;;3.63;;
13797;SDS011;6970;51.340;3.240;2024-02-15T05:21:22;7.60;;;3.30;;
13797;SDS011;6970;51.340;3.240;2024-02-15T05:23:52;9.70;;;3.40;;
13797;SDS011;6970;51.340;3.240;2024-02-15T05:28:50;7.47;;;3.60;;
13797;SDS011;6970;51.340;3.240;2024-02-15T05:31:20;8.65;;;3.10;;
13797;SDS011;6970;51.340;3.240;2024-02-15T05:33:48;8.93;;;3.55;;
13797;SDS011;6970;51.340;3.240;2024-02-15T05:38:47;9.68;;;3.30;;
13797;SDS011;6970;51.340;3.240;2024-02-15T05:41:17;9.68;;;3.15;;
13797;SDS011;6970;51.340;3.240;2024-02-15T05:43:52;8.93;;;3.22;;
13797;SDS011;6970;51.340;3.240;2024-02-15T05:48:50;9.63;;;3.13;;
13797;SDS011;6970;51.340;3.240;2024-02-15T05:51:18;10.27;;;3.60;;
13797;SDS011;6970;51.340;3.240;2024-02-15T05:53:49;9.60;;;3.20;;
13797;SDS011;6970;51.340;3.240;2024-02-15T05:56:16;8.43;;;2.95;;
13797;SDS011;6970;51.340;3.240;2024-02-15T05:58:46;9.73;;;3.47;;
13797;SDS011;6970;51.340;3.240;2024-02-15T06:01:15;10.32;;;2.95;;
13797;SDS011;6970;51.340;3.240;2024-02-15T06:03:46;10.65;;;2.75;;
13797;SDS011;6970;51.340;3.240;2024-02-15T06:06:16;7.25;;;3.08;;
13797;SDS011;6970;51.340;3.240;2024-02-15T06:08:46;9.23;;;2.97;;
13797;SDS011;6970;51.340;3.240;2024-02-15T06:11:18;8.80;;;3.00;;
13797;SDS011;6970;51.340;3.240;2024-02-15T06:13:50;9.93;;;3.03;;
13797;SDS011;6970;51.340;3.240;2024-02-15T06:16:20;7.57;;;3.28;;
13797;SDS011;6970;51.340;3.240;2024-02-15T06:18:51;10.05;;;2.97;;
13797;SDS011;6970;51.340;3.240;2024-02-15T06:23:53;8.90;;;3.00;;
13797;SDS011;6970;51.340;3.240;2024-02-15T06:28:52;10.05;;;2.95;;
13797;SDS011;6970;51.340;3.240;2024-02-15T06:34:26;7.05;;;2.95;;
13797;SDS011;6970;51.340;3.240;2024-02-15T06:40:24;7.97;;;2.97;;
13797;SDS011;6970;51.340;3.240;2024-02-15T06:45:23;11.10;;;3.17;;
13797;SDS011;6970;51.340;3.240;2024-02-15T06:47:50;7.75;;;3.00;;
13797;SDS011;6970;51.340;3.240;2024-02-15T06:50:21;10.45;;;3.90;;
13797;SDS011;6970;51.340;3.240;2024-02-15T06:52:49;9.00;;;3.47;;
13797;SDS011;6970;51.340;3.240;2024-02-15T06:55:18;9.65;;;3.28;;
13797;SDS011;6970;51.340;3.240;2024-02-15T06:57:46;9.68;;;3.08;;
13797;SDS011;6970;51.340;3.240;2024-02-15T07:00:20;11.18;;;3.55;;
13797;SDS011;6970;51.340;3.240;2024-02-15T07:02:49;12.27;;;3.83;;
13797;SDS011;6970;51.340;3.240;2024-02-15T07:05:16;9.68;;;2.92;;
13797;SDS011;6970;51.340;3.240;2024-02-15T07:07:46;10.10;;;3.45;;
13797;SDS011;6970;51.340;3.240;2024-02-15T07:10:14;9.63;;;2.88;;
13797;SDS011;6970;51.340;3.240;2024-02-15T07:12:42;9.07;;;3.42;;
13797;SDS011;6970;51.340;3.240;2024-02-15T07:15:13;9.25;;;3.58;;
13797;SDS011;6970;51.340;3.240;2024-02-15T07:17:41;9.70;;;3.42;;
13797;SDS011;6970;51.340;3.240;2024-02-15T07:20:10;10.05;;;3.30;;
13797;SDS011;6970;51.340;3.240;2024-02-15T07:22:43;11.30;;;4.32;;
13797;SDS011;6970;51.340;3.240;2024-02-15T07:25:14;8.88;;;3.40;;
13797;SDS011;6970;51.340;3.240;2024-02-15T07:30:14;10.02;;;3.30;;
13797;SDS011;6970;51.340;3.240;2024-02-15T07:32:44;9.48;;;3.70;;
13797;SDS011;6970;51.340;3.240;2024-02-15T07:35:11;9.07;;;3.90;;
13797;SDS011;6970;51.340;3.240;2024-02-15T07:37:39;9.95;;;3.55;;
13797;SDS011;6970;51.340;3.240;2024-02-15T07:40:21;8.10;;;3.42;;
13797;SDS011;6970;51.340;3.240;2024-02-15T07:45:19;8.45;;;3.45;;
13797;SDS011;6970;51.340;3.240;2024-02-15T07:47:47;8.35;;;3.70;;
13797;SDS011;6970;51.340;3.240;2024-02-15T07:50:24;10.43;;;4.00;;
13797;SDS011;6970;51.340;3.240;2024-02-15T07:55:24;9.50;;;4.03;;
13797;SDS011;6970;51.340;3.240;2024-02-15T07:57:51;15.05;;;4.93;;
13797;SDS011;6970;51.340;3.240;2024-02-15T08:00:22;8.23;;;3.08;;
13797;SDS011;6970;51.340;3.240;2024-02-15T08:02:49;13.35;;;3.95;;
13797;SDS011;6970;51.340;3.240;2024-02-15T08:05:16;10.98;;;4.30;;
13797;SDS011;6970;51.340;3.240;2024-02-15T08:07:44;15.05;;;4.70;;
13797;SDS011;6970;51.340;3.240;2024-02-15T08:10:11;10.57;;;4.50;;
13797;SDS011;6970;51.340;3.240;2024-02-15T08:15:20;12.27;;;4.82;;
13797;SDS011;6970;51.340;3.240;2024-02-15T08:20:19;10.27;;;4.30;;
13797;SDS011;6970;51.340;3.240;2024-02-15T08:22:48;11.75;;;5.30;;
13797;SDS011;6970;51.340;3.240;2024-02-15T08:25:15;13.70;;;5.38;;
13797;SDS011;6970;51.340;3.240;2024-02-15T08:30:17;10.65;;;4.30;;
13797;SDS011;6970;51.340;3.240;2024-02-15T08:32:50;11.05;;;4.85;;
13797;SDS011;6970;51.340;3.240;2024-02-15T08:35:18;11.77;;;5.10;;
13797;SDS011;6970;51.340;3.240;2024-02-15T08:37:47;11.90;;;4.68;;
13797;SDS011;6970;51.340;3.240;2024-02-15T08:40:23;9.70;;;4.60;;
13797;SDS011;6970;51.340;3.240;2024-02-15T08:42:54;11.30;;;4.85;;
13797;SDS011;6970;51.340;3.240;2024-02-15T08:45:21;13.55;;;4.55;;
13797;SDS011;6970;51.340;3.240;2024-02-15T08:47:50;14.32;;;4.93;;
13797;SDS011;6970;51.340;3.240;2024-02-15T08:52:52;10.98;;;5.07;;
13797;SDS011;6970;51.340;3.240;2024-02-15T08:55:19;11.63;;;4.95;;
13797;SDS011;6970;51.340;3.240;2024-02-15T08:57:53;11.60;;;4.90;;
13797;SDS011;6970;51.340;3.240;2024-02-15T09:02:55;11.02;;;5.57;;
13797;SDS011;6970;51.340;3.240;2024-02-15T09:05:25;11.90;;;4.68;;
13797;SDS011;6970;51.340;3.240;2024-02-15T09:07:53;10.98;;;4.75;;
13797;SDS011;6970;51.340;3.240;2024-02-15T09:10:21;10.63;;;4.13;;
13797;SDS011;6970;51.340;3.240;2024-02-15T09:12:52;9.57;;;4.22;;
13797;SDS011;6970;51.340;3.240;2024-02-15T09:15:19;9.95;;;4.70;;
13797;SDS011;6970;51.340;3.240;2024-02-15T09:17:51;9.82;;;4.05;;
13797;SDS011;6970;51.340;3.240;2024-02-15T09:20:24;12.18;;;4.40;;
13797;SDS011;6970;51.340;3.240;2024-02-15T09:22:58;9.65;;;3.97;;
13797;SDS011;6970;51.340;3.240;2024-02-15T09:25:30;9.45;;;4.05;;
13797;SDS011;6970;51.340;3.240;2024-02-15T09:30:31;10.35;;;4.70;;
13797;SDS011;6970;51.340;3.240;2024-02-15T09:35:31;12.93;;;4.40;;
13797;SDS011;6970;51.340;3.240;2024-02-15T09:37:59;9.57;;;3.88;;
13797;SDS011;6970;51.340;3.240;2024-02-15T09:40:32;11.02;;;3.95;;
13797;SDS011;6970;51.340;3.240;2024-02-15T09:43:03;9.13;;;3.55;;
13797;SDS011;6970;51.340;3.240;2024-02-15T09:45:33;7.53;;;3.25;;
13797;SDS011;6970;51.340;3.240;2024-02-15T09:48:03;10.57;;;3.92;;
13797;SDS011;6970;51.340;3.240;2024-02-15T09:53:06;8.13;;;3.35;;
13797;SDS011;6970;51.340;3.240;2024-02-15T09:58:11;10.05;;;3.50;;
13797;SDS011;6970;51.340;3.240;2024-02-15T10:00:40;12.25;;;2.92;;
13797;SDS011;6970;51.340;3.240;2024-02-15T10:03:08;9.00;;;3.25;;
13797;SDS011;6970;51.340;3.240;2024-02-15T10:05:42;7.45;;;3.30;;
13797;SDS011;6970;51.340;3.240;2024-02-15T10:08:10;7.13;;;3.13;;
13797;SDS011;6970;51.340;3.240;2024-02-15T10:10:37;8.60;;;3.50;;
13797;SDS011;6970;51.340;3.240;2024-02-15T10:13:05;9.10;;;3.05;;
13797;SDS011;6970;51.340;3.240;2024-02-15T10:15:35;8.00;;;2.92;;
13797;SDS011;6970;51.340;3.240;2024-02-15T10:18:08;9.95;;;2.88;;
13797;SDS011;6970;51.340;3.240;2024-02-15T10:28:22;8.45;;;2.60;;
13797;SDS011;6970;51.340;3.240;2024-02-15T10:33:27;6.55;;;2.50;;
13797;SDS011;6970;51.340;3.240;2024-02-15T10:36:07;7.80;;;2.38;;
13797;SDS011;6970;51.340;3.240;2024-02-15T10:38:42;7.45;;;2.70;;
13797;SDS011;6970;51.340;3.240;2024-02-15T10:43:39;6.70;;;2.33;;
13797;SDS011;6970;51.340;3.240;2024-02-15T10:46:15;10.63;;;2.72;;
13797;SDS011;6970;51.340;3.240;2024-02-15T10:48:49;8.07;;;2.42;;
13797;SDS011;6970;51.340;3.240;2024-02-15T10:51:17;5.93;;;2.22;;
13797;SDS011;6970;51.340;3.240;2024-02-15T10:53:47;7.72;;;2.22;;
13797;SDS011;6970;51.340;3.240;2024-02-15T10:56:27;8.98;;;2.50;;
13797;SDS011;6970;51.340;3.240;2024-02-15T11:01:49;7.72;;;3.05;;
13797;SDS011;6970;51.340;3.240;2024-02-15T11:04:18;5.85;;;2.47;;
13797;SDS011;6970;51.340;3.240;2024-02-15T11:06:55;6.45;;;2.30;;
13797;SDS011;6970;51.340;3.240;2024-02-15T11:09:25;6.90;;;2.38;;
13797;SDS011;6970;51.340;3.240;2024-02-15T11:11:55;8.18;;;2.38;;
13797;SDS011;6970;51.340;3.240;2024-02-15T11:19:43;6.15;;;2.20;;
13797;SDS011;6970;51.340;3.240;2024-02-15T11:22:15;6.78;;;2.25;;
13797;SDS011;6970;51.340;3.240;2024-02-15T11:24:47;6.72;;;2.45;;
13797;SDS011;6970;51.340;3.240;2024-02-15T11:27:25;7.65;;;2.38;;
13797;SDS011;6970;51.340;3.240;2024-02-15T11:29:58;7.18;;;2.35;;
13797;SDS011;6970;51.340;3.240;2024-02-15T11:32:48;7.70;;;2.60;;
13797;SDS011;6970;51.340;3.240;2024-02-15T11:35:26;6.07;;;2.10;;
13797;SDS011;6970;51.340;3.240;2024-02-15T11:46:17;8.60;;;3.10;;
13797;SDS011;6970;51.340;3.240;2024-02-15T11:51:24;6.82;;;2.22;;
13797;SDS011;6970;51.340;3.240;2024-02-15T11:54:02;6.60;;;2.33;;
13797;SDS011;6970;51.340;3.240;2024-02-15T11:59:43;6.38;;;2.40;;
13797;SDS011;6970;51.340;3.240;2024-02-15T12:02:21;6.13;;;2.00;;
13797;SDS011;6970;51.340;3.240;2024-02-15T12:05:08;6.72;;;2.13;;
13797;SDS011;6970;51.340;3.240;2024-02-15T12:07:59;6.40;;;1.77;;
13797;SDS011;6970;51.340;3.240;2024-02-15T12:10:56;8.25;;;2.30;;
13797;SDS011;6970;51.340;3.240;2024-02-15T12:13:54;5.93;;;2.20;;
13797;SDS011;6970;51.340;3.240;2024-02-15T12:16:42;7.20;;;1.98;;
13797;SDS011;6970;51.340;3.240;2024-02-15T12:19:31;6.53;;;2.17;;
13797;SDS011;6970;51.340;3.240;2024-02-15T12:22:00;6.25;;;1.80;;
13797;SDS011;6970;51.340;3.240;2024-02-15T12:24:33;6.10;;;1.77;;
13797;SDS011;6970;51.340;3.240;2024-02-15T12:27:02;7.07;;;2.30;;
13797;SDS011;6970;51.340;3.240;2024-02-15T12:29:30;6.78;;;2.00;;
13797;SDS011;6970;51.340;3.240;2024-02-15T12:31:58;6.45;;;2.10;;
13797;SDS011;6970;51.340;3.240;2024-02-15T12:34:26;8.73;;;2.13;;
13797;SDS011;6970;51.340;3.240;2024-02-15T12:37:04;7.53;;;2.40;;
13797;SDS011;6970;51.340;3.240;2024-02-15T12:39:37;7.25;;;1.90;;
13797;SDS011;6970;51.340;3.240;2024-02-15T12:42:06;7.40;;;2.33;;
13797;SDS011;6970;51.340;3.240;2024-02-15T12:47:21;6.43;;;2.10;;
13797;SDS011;6970;51.340;3.240;2024-02-15T12:49:49;6.55;;;2.00;;
13797;SDS011;6970;51.340;3.240;2024-02-15T12:52:36;7.55;;;2.25;;
13797;SDS011;6970;51.340;3.240;2024-02-15T12:55:15;6.32;;;2.10;;
13797;SDS011;6970;51.340;3.240;2024-02-15T12:57:58;6.68;;;2.30;;
13797;SDS011;6970;51.340;3.240;2024-02-15T13:00:28;7.82;;;2.55;;
13797;SDS011;6970;51.340;3.240;2024-02-15T13:02:55;6.22;;;2.22;;
13797;SDS011;6970;51.340;3.240;2024-02-15T13:08:00;6.40;;;2.20;;
13797;SDS011;6970;51.340;3.240;2024-02-15T13:10:31;8.63;;;2.38;;
13797;SDS011;6970;51.340;3.240;2024-02-15T13:13:00;8.10;;;2.20;;
13797;SDS011;6970;51.340;3.240;2024-02-15T13:15:31;8.02;;;2.20;;
13797;SDS011;6970;51.340;3.240;2024-02-15T13:18:03;8.38;;;1.95;;
13797;SDS011;6970;51.340;3.240;2024-02-15T13:20:42;6.38;;;2.35;;
13797;SDS011;6970;51.340;3.240;2024-02-15T13:23:10;5.78;;;1.88;;
13797;SDS011;6970;51.340;3.240;2024-02-15T13:25:54;8.68;;;2.00;;
13797;SDS011;6970;51.340;3.240;2024-02-15T13:28:25;6.18;;;2.00;;
13797;SDS011;6970;51.340;3.240;2024-02-15T13:30:55;7.05;;;2.65;;
13797;SDS011;6970;51.340;3.240;2024-02-15T13:33:23;5.63;;;1.67;;
13797;SDS011;6970;51.340;3.240;2024-02-15T13:35:55;8.32;;;1.80;;
13797;SDS011;6970;51.340;3.240;2024-02-15T13:38:23;8.05;;;1.90;;
13797;SDS011;6970;51.340;3.240;2024-02-15T13:41:02;5.88;;;2.20;;
13797;SDS011;6970;51.340;3.240;2024-02-15T13:43:30;7.30;;;2.70;;
13797;SDS011;6970;51.340;3.240;2024-02-15T13:45:59;8.52;;;2.78;;
13797;SDS011;6970;51.340;3.240;2024-02-15T13:48:29;6.93;;;2.58;;
13797;SDS011;6970;51.340;3.240;2024-02-15T13:53:31;11.65;;;2.65;;
13797;SDS011;6970;51.340;3.240;2024-02-15T13:58:32;6.10;;;2.40;;
13797;SDS011;6970;51.340;3.240;2024-02-15T14:01:03;7.25;;;2.53;;
13797;SDS011;6970;51.340;3.240;2024-02-15T14:03:32;7.05;;;2.50;;
13797;SDS011;6970;51.340;3.240;2024-02-15T14:06:03;7.18;;;2.00;;
13797;SDS011;6970;51.340;3.240;2024-02-15T14:11:03;8.25;;;2.35;;
13797;SDS011;6970;51.340;3.240;2024-02-15T14:13:34;7.32;;;1.85;;
13797;SDS011;6970;51.340;3.240;2024-02-15T14:16:04;9.35;;;2.13;;
13797;SDS011;6970;51.340;3.240;2024-02-15T14:18:35;7.18;;;2.40;;
13797;SDS011;6970;51.340;3.240;2024-02-15T14:21:02;7.38;;;2.50;;
13797;SDS011;6970;51.340;3.240;2024-02-15T14:23:30;8.95;;;2.88;;
13797;SDS011;6970;51.340;3.240;2024-02-15T14:25:58;7.25;;;2.65;;
13797;SDS011;6970;51.340;3.240;2024-02-15T14:28:29;8.45;;;2.47;;
13797;SDS011;6970;51.340;3.240;2024-02-15T14:30:59;7.03;;;2.30;;
13797;SDS011;6970;51.340;3.240;2024-02-15T14:36:17;7.75;;;2.25;;
13797;SDS011;6970;51.340;3.240;2024-02-15T14:38:47;6.43;;;1.92;;
13797;SDS011;6970;51.340;3.240;2024-02-15T14:41:16;6.07;;;1.88;;
13797;SDS011;6970;51.340;3.240;2024-02-15T14:44:01;6.95;;;2.15;;
13797;SDS011;6970;51.340;3.240;2024-02-15T14:46:30;7.07;;;2.13;;
13797;SDS011;6970;51.340;3.240;2024-02-15T14:48:58;7.40;;;2.08;;
13797;SDS011;6970;51.340;3.240;2024-02-15T14:51:25;6.05;;;1.83;;
13797;SDS011;6970;51.340;3.240;2024-02-15T14:53:55;8.82;;;2.40;;
13797;SDS011;6970;51.340;3.240;2024-02-15T14:56:22;10.73;;;2.03;;
13797;SDS011;6970;51.340;3.240;2024-02-15T14:58:51;6.10;;;1.70;;
13797;SDS011;6970;51.340;3.240;2024-02-15T15:06:31;7.22;;;1.90;;
13797;SDS011;6970;51.340;3.240;2024-02-15T15:09:23;7.00;;;2.38;;
13797;SDS011;6970;51.340;3.240;2024-02-15T15:12:09;6.50;;;1.80;;
13797;SDS011;6970;51.340;3.240;2024-02-15T15:15:02;5.97;;;1.77;;
13797;SDS011;6970;51.340;3.240;2024-02-15T15:17:31;6.38;;;2.10;;
13797;SDS011;6970;51.340;3.240;2024-02-15T15:19:58;9.07;;;2.15;;
13797;SDS011;6970;51.340;3.240;2024-02-15T15:22:25;6.80;;;2.13;;
13797;SDS011;6970;51.340;3.240;2024-02-15T15:24:56;5.43;;;1.92;;
13797;SDS011;6970;51.340;3.240;2024-02-15T15:27:24;7.35;;;2.33;;
13797;SDS011;6970;51.340;3.240;2024-02-15T15:29:51;6.90;;;2.38;;
13797;SDS011;6970;51.340;3.240;2024-02-15T15:32:19;6.80;;;2.38;;
13797;SDS011;6970;51.340;3.240;2024-02-15T15:34:47;8.73;;;2.90;;
13797;SDS011;6970;51.340;3.240;2024-02-15T15:37:16;9.10;;;2.70;;
13797;SDS011;6970;51.340;3.240;2024-02-15T15:39:44;8.32;;;2.58;;
13797;SDS011;6970;51.340;3.240;2024-02-15T15:42:15;6.43;;;2.20;;
13797;SDS011;6970;51.340;3.240;2024-02-15T15:44:42;7.05;;;2.50;;
13797;SDS011;6970;51.340;3.240;2024-02-15T15:47:10;7.70;;;2.30;;
13797;SDS011;6970;51.340;3.240;2024-02-15T15:49:40;7.40;;;2.50;;
13797;SDS011;6970;51.340;3.240;2024-02-15T15:52:13;6.32;;;2.10;;
13797;SDS011;6970;51.340;3.240;2024-02-15T15:54:41;7.28;;;1.98;;
13797;SDS011;6970;51.340;3.240;2024-02-15T15:57:10;4.80;;;1.70;;
13797;SDS011;6970;51.340;3.240;2024-02-15T16:02:10;8.05;;;1.65;;
13797;SDS011;6970;51.340;3.240;2024-02-15T16:04:47;6.03;;;2.40;;
13797;SDS011;6970;51.340;3.240;2024-02-15T16:07:19;6.50;;;1.83;;
13797;SDS011;6970;51.340;3.240;2024-02-15T16:09:53;5.65;;;1.88;;
13797;SDS011;6970;51.340;3.240;2024-02-15T16:12:23;5.68;;;1.67;;
13797;SDS011;6970;51.340;3.240;2024-02-15T16:14:53;8.07;;;1.85;;
13797;SDS011;6970;51.340;3.240;2024-02-15T16:17:20;6.65;;;1.70;;
13797;SDS011;6970;51.340;3.240;2024-02-15T16:19:50;7.13;;;1.80;;
13797;SDS011;6970;51.340;3.240;2024-02-15T16:22:20;6.20;;;1.80;;
13797;SDS011;6970;51.340;3.240;2024-02-15T16:24:49;6.70;;;2.10;;
13797;SDS011;6970;51.340;3.240;2024-02-15T16:27:18;9.20;;;1.92;;
13797;SDS011;6970;51.340;3.240;2024-02-15T16:29:46;7.15;;;2.03;;
13797;SDS011;6970;51.340;3.240;2024-02-15T16:32:17;6.07;;;1.73;;
13797;SDS011;6970;51.340;3.240;2024-02-15T16:34:44;6.45;;;2.10;;
13797;SDS011;6970;51.340;3.240;2024-02-15T16:37:11;6.50;;;1.73;;
13797;SDS011;6970;51.340;3.240;2024-02-15T16:39:38;6.80;;;2.25;;
13797;SDS011;6970;51.340;3.240;2024-02-15T16:42:06;6.68;;;1.92;;
13797;SDS011;6970;51.340;3.240;2024-02-15T16:44:34;6.15;;;1.85;;
13797;SDS011;6970;51.340;3.240;2024-02-15T16:49:36;5.78;;;1.83;;
13797;SDS011;6970;51.340;3.240;2024-02-15T16:52:03;5.22;;;2.03;;
13797;SDS011;6970;51.340;3.240;2024-02-15T16:54:31;6.75;;;2.20;;
13797;SDS011;6970;51.340;3.240;2024-02-15T16:57:00;6.85;;;2.20;;
13797;SDS011;6970;51.340;3.240;2024-02-15T16:59:41;7.55;;;2.25;;
13797;SDS011;6970;51.340;3.240;2024-02-15T17:02:08;7.65;;;1.95;;
13797;SDS011;6970;51.340;3.240;2024-02-15T17:04:46;5.28;;;2.03;;
13797;SDS011;6970;51.340;3.240;2024-02-15T17:07:13;6.15;;;1.92;;
13797;SDS011;6970;51.340;3.240;2024-02-15T17:09:40;7.07;;;1.92;;
13797;SDS011;6970;51.340;3.240;2024-02-15T17:12:09;6.50;;;2.08;;
13797;SDS011;6970;51.340;3.240;2024-02-15T17:17:07;5.93;;;2.05;;
13797;SDS011;6970;51.340;3.240;2024-02-15T17:19:35;6.18;;;2.00;;
13797;SDS011;6970;51.340;3.240;2024-02-15T17:22:07;7.03;;;2.42;;
13797;SDS011;6970;51.340;3.240;2024-02-15T17:24:37;6.53;;;2.40;;
13797;SDS011;6970;51.340;3.240;2024-02-15T17:27:09;8.60;;;2.40;;
13797;SDS011;6970;51.340;3.240;2024-02-15T17:29:39;8.15;;;2.20;;
13797;SDS011;6970;51.340;3.240;2024-02-15T17:34:41;7.38;;;2.20;;
13797;SDS011;6970;51.340;3.240;2024-02-15T17:37:09;9.35;;;2.50;;
13797;SDS011;6970;51.340;3.240;2024-02-15T17:39:41;8.68;;;2.15;;
13797;SDS011;6970;51.340;3.240;2024-02-15T17:42:11;6.78;;;2.10;;
13797;SDS011;6970;51.340;3.240;2024-02-15T17:47:12;5.75;;;2.50;;
13797;SDS011;6970;51.340;3.240;2024-02-15T17:49:42;8.27;;;3.15;;
13797;SDS011;6970;51.340;3.240;2024-02-15T17:52:11;7.55;;;2.30;;
13797;SDS011;6970;51.340;3.240;2024-02-15T17:54:42;5.85;;;1.83;;
13797;SDS011;6970;51.340;3.240;2024-02-15T17:57:15;5.57;;;2.08;;
13797;SDS011;6970;51.340;3.240;2024-02-15T18:02:13;6.05;;;2.03;;
13797;SDS011;6970;51.340;3.240;2024-02-15T18:04:40;6.32;;;1.98;;
13797;SDS011;6970;51.340;3.240;2024-02-15T18:07:15;6.00;;;2.13;;
13797;SDS011;6970;51.340;3.240;2024-02-15T18:09:46;5.03;;;1.92;;
13797;SDS011;6970;51.340;3.240;2024-02-15T18:14:49;5.97;;;2.35;;
13797;SDS011;6970;51.340;3.240;2024-02-15T18:17:18;6.00;;;2.20;;
13797;SDS011;6970;51.340;3.240;2024-02-15T18:22:18;6.22;;;2.05;;
13797;SDS011;6970;51.340;3.240;2024-02-15T18:24:46;6.75;;;2.20;;
13797;SDS011;6970;51.340;3.240;2024-02-15T18:27:17;6.30;;;2.80;;
13797;SDS011;6970;51.340;3.240;2024-02-15T18:29:49;8.05;;;3.00;;
13797;SDS011;6970;51.340;3.240;2024-02-15T18:32:17;7.55;;;2.58;;
13797;SDS011;6970;51.340;3.240;2024-02-15T18:34:48;6.80;;;2.53;;
13797;SDS011;6970;51.340;3.240;2024-02-15T18:37:15;6.30;;;2.55;;
13797;SDS011;6970;51.340;3.240;2024-02-15T18:39:45;6.32;;;2.47;;
13797;SDS011;6970;51.340;3.240;2024-02-15T18:42:18;5.75;;;2.40;;
13797;SDS011;6970;51.340;3.240;2024-02-15T18:44:54;6.28;;;3.15;;